CheckWX is a tool to help pilots better visualize weather data.  It is not intended as a substitute for an official pre-flight weather briefing.

17:28:19 UTC

KUCY METAR
Everett-Stewart Regional Airport
Union City, Tennessee, USA
Current

33 mins ago

KUCY 201655Z AUTO 09003KT 10SM SCT070 21/12 A2991 RMK A01
Observed
Oct-20 @ 16:55 UTC
Wind
  • 090° at 3 KTS
Visibility
10 SM
Flight Rules
VFR
Cloud Levels
  • Scattered at 7,000' AGL
Temperature
21°C / 70°F
Dewpoint
12°C / 54°F
Humidity
57%
Altimeter
29.91" Hg
Pressure
1012.92 hPa
Previous

53 mins ago

KUCY 201635Z AUTO 00000KT 10SM CLR 21/12 A2991 RMK A01
Observed
Oct-20 @ 16:35 UTC
Visibility
10 SM
Flight Rules
VFR
Cloud Levels
  • Clear skies
Temperature
21°C / 70°F
Dewpoint
12°C / 54°F
Humidity
57%
Altimeter
29.91" Hg
Pressure
1012.92 hPa
Previous

1 hour ago

KUCY 201615Z AUTO 00000KT 10SM CLR 21/13 A2990 RMK A01
Observed
Oct-20 @ 16:15 UTC
Visibility
10 SM
Flight Rules
VFR
Cloud Levels
  • Clear skies
Temperature
21°C / 70°F
Dewpoint
13°C / 55°F
Humidity
60%
Altimeter
29.9" Hg
Pressure
1012.52 hPa